Time;durP1;ratioP1;P1;durP2;ratioP2;P2;SDS_P1;SDS_P2;PMS_P1;PMS_P2;Temp;Humidity;BMP_temperature;BMP_pressure;BME280_temperature;BME280_humidity;BME280_pressure;Samples;Min_cycle;Max_cycle;Signal;HPM_P1;HPM_P2
2023/08/03 00:00:12;;;;;;;2.90;1.10;;;;;;;17.34;100.00;98209.41;5060095;28;20232;-85
2023/08/03 00:02:39;;;;;;;2.23;0.90;;;;;;;17.35;100.00;98213.72;5059912;28;20209;-85
2023/08/03 00:05:06;;;;;;;3.57;1.13;;;;;;;17.33;100.00;98207.75;5060082;28;20201;-84
2023/08/03 00:07:33;;;;;;;2.70;0.97;;;;;;;17.33;100.00;98224.41;5060144;28;20259;-86
2023/08/03 00:09:59;;;;;;;2.37;1.00;;;;;;;17.32;100.00;98206.88;5060555;28;20229;-86
2023/08/03 00:12:26;;;;;;;2.60;1.00;;;;;;;17.30;100.00;98208.81;5060165;28;20687;-84
2023/08/03 00:14:53;;;;;;;4.03;1.10;;;;;;;17.28;100.00;98189.66;5060922;28;20212;-87
2023/08/03 00:17:21;;;;;;;2.93;0.93;;;;;;;17.23;100.00;98176.03;5060575;28;20229;-85
2023/08/03 00:19:47;;;;;;;1.83;1.37;;;;;;;17.24;100.00;98181.19;5061082;28;20217;-86
2023/08/03 00:22:13;;;;;;;5.00;1.23;;;;;;;17.23;100.00;98200.59;5060552;28;20922;-86
2023/08/03 00:24:40;;;;;;;2.93;0.97;;;;;;;17.24;100.00;98190.88;5060933;28;20201;-86
2023/08/03 00:27:07;;;;;;;3.30;1.30;;;;;;;17.22;100.00;98198.94;5060260;28;20263;-86
2023/08/03 00:29:33;;;;;;;1.50;0.97;;;;;;;17.23;100.00;98211.13;5060707;28;20232;-86
2023/08/03 00:32:01;;;;;;;3.67;1.30;;;;;;;17.19;100.00;98216.78;5061148;28;20205;-86
2023/08/03 00:34:30;;;;;;;2.90;1.00;;;;;;;17.13;100.00;98217.28;5060999;28;20749;-87
2023/08/03 00:36:56;;;;;;;1.50;0.60;;;;;;;17.14;100.00;98213.69;5060665;28;20821;-86
2023/08/03 00:39:23;;;;;;;2.03;1.10;;;;;;;17.17;100.00;98209.00;5060945;28;20217;-87
2023/08/03 00:41:51;;;;;;;2.93;1.00;;;;;;;17.24;100.00;98198.78;5059882;28;20205;-87
2023/08/03 00:44:17;;;;;;;2.03;1.00;;;;;;;17.23;100.00;98200.59;5059575;28;20201;-87
2023/08/03 00:46:44;;;;;;;2.37;1.30;;;;;;;17.18;100.00;98223.00;5059581;28;20698;-87
2023/08/03 00:49:10;;;;;;;2.67;1.27;;;;;;;17.07;100.00;98219.47;5060142;28;20232;-87
2023/08/03 00:51:38;;;;;;;1.47;0.83;;;;;;;17.14;100.00;98216.31;5059272;28;20215;-84
2023/08/03 00:54:07;;;;;;;3.17;0.90;;;;;;;17.14;100.00;98208.41;5055684;28;20208;-85
2023/08/03 00:56:33;;;;;;;2.73;1.10;;;;;;;17.14;100.00;98205.78;5055540;28;20198;-84
2023/08/03 00:59:00;;;;;;;1.60;0.80;;;;;;;17.14;100.00;98192.59;5055594;28;20236;-84
2023/08/03 01:01:26;;;;;;;3.87;1.17;;;;;;;17.07;100.00;98201.00;5056811;28;20672;-86
2023/08/03 01:03:54;;;;;;;2.03;0.97;;;;;;;17.12;100.00;98200.63;5056622;28;20260;-84
2023/08/03 01:06:21;;;;;;;2.77;0.90;;;;;;;16.92;100.00;98202.25;5057622;28;20645;-87
2023/08/03 01:08:48;;;;;;;4.17;1.20;;;;;;;16.99;100.00;98203.44;5057156;28;20216;-86
2023/08/03 01:11:15;;;;;;;4.93;1.27;;;;;;;16.98;100.00;98199.13;5059907;28;20212;-85
2023/08/03 01:13:42;;;;;;;3.17;1.40;;;;;;;17.01;100.00;98184.88;5063122;28;20209;-84
2023/08/03 01:16:09;;;;;;;3.30;1.17;;;;;;;17.03;100.00;98182.94;5057982;28;20637;-85
2023/08/03 01:18:36;;;;;;;2.33;1.50;;;;;;;17.04;100.00;98184.59;5058060;28;20224;-84
2023/08/03 01:21:04;;;;;;;2.47;1.00;;;;;;;17.03;100.00;98182.94;5057846;28;20232;-85
2023/08/03 01:23:31;;;;;;;3.73;1.00;;;;;;;17.07;100.00;98193.09;5057030;28;20216;-86
2023/08/03 01:25:58;;;;;;;2.10;1.20;;;;;;;17.06;100.00;98187.94;5058014;28;20224;-87
2023/08/03 01:28:24;;;;;;;3.57;1.20;;;;;;;17.06;100.00;98203.75;5058027;28;20574;-87
2023/08/03 01:30:51;;;;;;;4.57;1.27;;;;;;;17.10;100.00;98194.63;5056855;28;20238;-86
2023/08/03 01:33:17;;;;;;;3.63;1.10;;;;;;;17.00;100.00;98181.38;5058067;28;20550;-86
2023/08/03 01:35:44;;;;;;;3.50;1.00;;;;;;;16.97;100.00;98172.91;5057083;28;20208;-86
2023/08/03 01:38:13;;;;;;;2.47;1.47;;;;;;;16.95;100.00;98173.03;5058121;28;20232;-86
2023/08/03 01:40:42;;;;;;;2.43;0.97;;;;;;;16.87;100.00;98184.19;5057158;28;20318;-86
2023/08/03 01:43:08;;;;;;;2.40;1.20;;;;;;;16.93;100.00;98182.84;5057243;28;20209;-86
2023/08/03 01:45:35;;;;;;;4.47;1.20;;;;;;;16.96;100.00;98194.94;5057205;28;20204;-85
2023/08/03 01:48:01;;;;;;;2.00;1.00;;;;;;;16.96;100.00;98179.94;5057654;28;20585;-86
2023/08/03 01:50:28;;;;;;;4.10;1.30;;;;;;;16.93;100.00;98161.78;5057769;28;20225;-86
2023/08/03 01:52:54;;;;;;;1.73;0.90;;;;;;;16.91;100.00;98155.78;5058040;28;20559;-86
2023/08/03 01:55:20;;;;;;;3.73;1.27;;;;;;;16.88;100.00;98164.75;5057615;28;20213;-85
2023/08/03 01:57:48;;;;;;;2.60;1.10;;;;;;;16.85;100.00;98186.09;5057205;28;20270;-87
2023/08/03 02:00:15;;;;;;;4.03;1.57;;;;;;;16.89;99.78;98205.16;5057162;28;20225;-86
2023/08/03 02:02:41;;;;;;;4.43;1.10;;;;;;;16.94;100.00;98197.69;5056677;28;20209;-85
2023/08/03 02:05:07;;;;;;;2.03;1.00;;;;;;;16.95;99.61;98193.28;5057465;28;20205;-87
2023/08/03 02:07:45;;;;;;;5.87;1.17;;;;;;;16.93;99.58;98195.19;5057034;28;20201;-86
2023/08/03 02:10:11;;;;;;;3.10;0.80;;;;;;;16.90;99.63;98196.25;5056479;28;20264;-86
2023/08/03 02:12:38;;;;;;;3.70;1.03;;;;;;;16.88;98.51;98206.09;5057513;28;20200;-85
2023/08/03 02:15:07;;;;;;;1.77;0.80;;;;;;;16.95;100.00;98180.94;5056241;28;20220;-86
2023/08/03 02:17:34;;;;;;;4.40;1.10;;;;;;;16.99;99.62;98187.63;5056029;28;20220;-84
2023/08/03 02:20:00;;;;;;;3.17;0.97;;;;;;;16.87;98.83;98205.25;5056962;28;20229;-86
2023/08/03 02:22:27;;;;;;;4.10;1.50;;;;;;;16.96;99.58;98185.22;5057926;28;20212;-86
2023/08/03 02:24:53;;;;;;;2.07;0.93;;;;;;;16.92;99.83;98181.16;5051136;28;20210;-84
2023/08/03 02:27:19;;;;;;;2.60;1.00;;;;;;;16.84;98.64;98180.94;5037901;28;20214;-84
2023/08/03 02:29:46;;;;;;;1.43;0.80;;;;;;;16.87;100.00;98170.19;5036951;28;20746;-84
2023/08/03 02:32:14;;;;;;;4.27;1.37;;;;;;;16.94;99.98;98159.97;5037018;28;20216;-86
2023/08/03 02:34:40;;;;;;;3.90;0.87;;;;;;;16.96;99.95;98164.13;5037238;28;20221;-84
2023/08/03 02:37:07;;;;;;;4.13;0.90;;;;;;;16.94;99.81;98152.88;5037091;28;20212;-85
2023/08/03 02:39:33;;;;;;;1.90;0.83;;;;;;;16.97;100.00;98152.66;5037006;28;20234;-86
2023/08/03 02:42:00;;;;;;;2.10;0.90;;;;;;;16.96;99.47;98166.78;5036744;28;20652;-86
2023/08/03 02:44:26;;;;;;;4.03;1.40;;;;;;;16.99;98.56;98178.88;5036898;28;20672;-84
2023/08/03 02:46:53;;;;;;;3.93;1.10;;;;;;;16.98;98.19;98179.84;5037080;28;20216;-86
2023/08/03 02:49:20;;;;;;;4.20;1.23;;;;;;;16.99;98.86;98170.97;5037792;28;20229;-86
2023/08/03 02:51:47;;;;;;;2.73;0.83;;;;;;;16.86;97.23;98187.75;5037076;28;20266;-84
2023/08/03 02:54:13;;;;;;;3.37;0.90;;;;;;;16.94;97.89;98186.31;5037197;28;20280;-85
2023/08/03 02:56:39;;;;;;;2.67;0.90;;;;;;;16.90;99.05;98179.63;5035962;28;20275;-86
2023/08/03 02:59:06;;;;;;;2.60;1.53;;;;;;;16.92;99.02;98164.53;5036100;28;20237;-87
2023/08/03 03:01:32;;;;;;;2.47;0.70;;;;;;;16.85;98.57;98172.09;5036220;28;20215;-87
2023/08/03 03:03:59;;;;;;;1.43;1.00;;;;;;;16.84;98.94;98154.59;5035899;28;20204;-88
2023/08/03 03:06:26;;;;;;;2.63;1.10;;;;;;;16.92;100.00;98138.16;5035124;28;20209;-88
2023/08/03 03:08:53;;;;;;;1.53;0.80;;;;;;;16.84;100.00;98108.00;5036081;28;20209;-87
2023/08/03 03:11:19;;;;;;;3.30;0.93;;;;;;;16.74;100.00;98085.16;5052938;28;20210;-87
2023/08/03 03:13:45;;;;;;;2.00;0.97;;;;;;;16.72;100.00;98048.41;5056449;28;20578;-87
2023/08/03 03:16:12;;;;;;;2.50;0.93;;;;;;;16.75;100.00;98034.13;5056754;28;20213;-87
2023/08/03 03:18:38;;;;;;;1.67;0.80;;;;;;;16.82;100.00;98035.31;5056794;28;20233;-86
2023/08/03 03:21:04;;;;;;;1.93;0.63;;;;;;;16.73;100.00;98001.81;5056921;28;20218;-87
2023/08/03 03:23:32;;;;;;;0.73;0.57;;;;;;;16.62;100.00;97990.38;5057111;28;20201;-87
2023/08/03 03:25:59;;;;;;;1.37;0.50;;;;;;;16.56;100.00;97993.50;5055799;28;20643;-87
2023/08/03 03:28:25;;;;;;;1.63;0.60;;;;;;;16.52;100.00;97984.19;5060817;28;20201;-87
2023/08/03 03:30:51;;;;;;;2.77;0.80;;;;;;;16.47;100.00;97973.19;5062501;28;20745;-87
2023/08/03 03:33:18;;;;;;;2.37;0.70;;;;;;;16.48;100.00;97967.81;5065665;28;20216;-85
2023/08/03 03:35:44;;;;;;;1.10;0.73;;;;;;;16.38;100.00;97956.38;5073174;28;20222;-84
2023/08/03 03:38:10;;;;;;;1.97;0.90;;;;;;;16.46;100.00;97956.56;5073529;28;20213;-85
2023/08/03 03:40:38;;;;;;;4.73;0.67;;;;;;;16.38;100.00;97939.75;5074346;28;20231;-86
2023/08/03 03:43:04;;;;;;;2.17;0.67;;;;;;;16.41;100.00;97950.00;5074428;28;20820;-85
2023/08/03 03:45:31;;;;;;;2.77;0.70;;;;;;;16.37;100.00;97944.19;5074362;28;20211;-84
2023/08/03 03:47:57;;;;;;;2.30;1.03;;;;;;;16.31;100.00;97935.94;5073191;28;20216;-85
2023/08/03 03:50:24;;;;;;;2.00;0.80;;;;;;;16.39;100.00;97947.53;5062892;28;20263;-85
2023/08/03 03:52:50;;;;;;;2.33;0.67;;;;;;;16.37;100.00;97940.69;5056824;28;20728;-85
2023/08/03 03:55:16;;;;;;;1.47;0.67;;;;;;;16.38;100.00;97969.53;5056289;28;20219;-85
2023/08/03 03:57:44;;;;;;;1.17;0.70;;;;;;;16.47;100.00;97970.56;5057580;28;20204;-87
2023/08/03 04:00:11;;;;;;;1.60;0.80;;;;;;;16.46;100.00;97988.16;5057053;28;20238;-85
2023/08/03 04:02:38;;;;;;;1.77;0.73;;;;;;;16.56;100.00;98005.84;5057636;28;20217;-84
2023/08/03 04:05:04;;;;;;;2.40;0.70;;;;;;;16.60;100.00;98002.84;5057798;28;20235;-84
2023/08/03 04:07:31;;;;;;;1.63;0.60;;;;;;;16.65;100.00;98013.00;5058690;28;20230;-84
2023/08/03 04:09:57;;;;;;;0.77;0.60;;;;;;;16.61;100.00;98019.47;5058137;28;20237;-84
2023/08/03 04:12:23;;;;;;;0.87;0.70;;;;;;;16.64;100.00;98035.03;5058095;28;20632;-86
2023/08/03 04:14:52;;;;;;;3.00;0.80;;;;;;;16.66;100.00;98080.50;5058373;28;20209;-85
2023/08/03 04:17:18;;;;;;;2.60;0.90;;;;;;;16.70;100.00;98087.19;5058463;28;20230;-85
2023/08/03 04:19:45;;;;;;;1.60;0.80;;;;;;;16.66;100.00;98077.88;5058134;28;20236;-85
2023/08/03 04:22:11;;;;;;;0.87;0.60;;;;;;;16.52;100.00;98075.53;5056980;28;20205;-83
2023/08/03 04:24:38;;;;;;;1.30;0.80;;;;;;;16.51;100.00;98079.13;5057560;28;20216;-87
2023/08/03 04:27:05;;;;;;;1.90;0.80;;;;;;;16.57;100.00;98044.38;5057867;28;20215;-85
2023/08/03 04:29:31;;;;;;;0.90;0.60;;;;;;;16.47;100.00;98026.72;5057640;28;20223;-87
2023/08/03 04:31:59;;;;;;;1.53;0.70;;;;;;;16.60;100.00;98036.25;5056828;28;20203;-86
2023/08/03 04:34:25;;;;;;;2.10;0.93;;;;;;;16.58;100.00;98051.34;5058489;28;20205;-87
2023/08/03 04:36:52;;;;;;;4.33;0.93;;;;;;;16.58;100.00;98060.06;5057084;28;20216;-86
2023/08/03 04:39:18;;;;;;;1.37;0.67;;;;;;;16.61;100.00;98069.50;5054386;28;20618;-87
2023/08/03 04:41:45;;;;;;;1.07;0.70;;;;;;;16.57;100.00;98076.00;5056952;28;20214;-83
2023/08/03 04:44:11;;;;;;;1.97;0.73;;;;;;;16.57;100.00;98070.72;5056658;28;20208;-84
2023/08/03 04:46:37;;;;;;;1.13;0.77;;;;;;;16.62;100.00;98085.19;5062303;28;20211;-85
2023/08/03 04:49:10;;;;;;;1.10;0.80;;;;;;;16.64;100.00;98087.72;5063804;28;20217;-86
2023/08/03 04:51:36;;;;;;;0.63;0.60;;;;;;;16.64;100.00;98059.56;5063786;28;20745;-86
2023/08/03 04:54:02;;;;;;;0.50;0.43;;;;;;;16.51;100.00;98077.34;5062978;28;20205;-86
2023/08/03 04:56:29;;;;;;;0.70;0.70;;;;;;;16.60;100.00;98110.81;5063245;28;20204;-86
2023/08/03 04:58:55;;;;;;;1.07;0.80;;;;;;;16.67;100.00;98090.94;5063852;28;20239;-87
2023/08/03 05:01:22;;;;;;;1.77;0.70;;;;;;;16.72;100.00;98102.88;5063617;28;20569;-86
2023/08/03 05:03:48;;;;;;;1.57;1.13;;;;;;;16.56;100.00;98125.19;5064900;28;20205;-85
2023/08/03 05:06:16;;;;;;;1.53;0.97;;;;;;;16.60;100.00;98141.59;5066244;28;20675;-87
2023/08/03 05:08:42;;;;;;;1.30;0.60;;;;;;;16.54;100.00;98156.09;5067320;28;20204;-87
2023/08/03 05:11:09;;;;;;;0.83;0.60;;;;;;;16.61;100.00;98135.34;5068219;28;20693;-86
2023/08/03 05:13:35;;;;;;;0.83;0.70;;;;;;;16.62;100.00;98137.03;5068051;28;20205;-88
2023/08/03 05:16:02;;;;;;;1.37;1.00;;;;;;;16.61;100.00;98148.53;5068135;28;20211;-88
2023/08/03 05:18:28;;;;;;;0.87;0.77;;;;;;;16.65;100.00;98156.06;5067565;28;20212;-87
2023/08/03 05:20:54;;;;;;;0.90;0.60;;;;;;;16.71;100.00;98160.00;5068063;28;20239;-87
2023/08/03 05:23:22;;;;;;;1.27;0.63;;;;;;;16.78;100.00;98173.53;5068887;28;20232;-87
2023/08/03 05:25:54;;;;;;;1.03;0.63;;;;;;;16.71;100.00;98186.34;5069022;28;20209;-89
2023/08/03 05:28:21;;;;;;;1.40;0.70;;;;;;;16.82;100.00;98183.72;5068118;28;20300;-85
2023/08/03 05:30:47;;;;;;;1.37;0.83;;;;;;;16.81;100.00;98173.28;5068034;28;20625;-88
2023/08/03 05:33:14;;;;;;;1.00;0.70;;;;;;;16.70;100.00;98202.28;5068729;28;20206;-86
2023/08/03 05:35:41;;;;;;;2.17;0.77;;;;;;;16.78;100.00;98218.31;5068739;28;20223;-88
2023/08/03 05:38:07;;;;;;;1.37;0.70;;;;;;;16.66;100.00;98222.75;5068572;28;20243;-87
2023/08/03 05:40:35;;;;;;;1.03;0.60;;;;;;;16.73;100.00;98231.84;5068598;28;20289;-88
2023/08/03 05:43:02;;;;;;;1.60;0.70;;;;;;;16.76;100.00;98254.47;5069828;28;20231;-89
2023/08/03 05:45:38;;;;;;;2.53;0.90;;;;;;;16.87;100.00;98236.88;5070545;28;20212;-88
2023/08/03 05:48:12;;;;;;;1.30;1.03;;;;;;;16.87;100.00;98280.84;5069050;28;20201;-87
2023/08/03 05:50:41;;;;;;;1.27;0.77;;;;;;;16.97;100.00;98268.63;5068804;28;20240;-89
2023/08/03 05:53:09;;;;;;;1.53;0.80;;;;;;;17.03;100.00;98260.22;5069175;28;20208;-87
2023/08/03 05:55:37;;;;;;;0.80;0.80;;;;;;;17.10;100.00;98263.19;5065400;28;20280;-87
2023/08/03 05:58:04;;;;;;;1.23;0.90;;;;;;;17.16;100.00;98288.22;5058670;28;20212;-85
2023/08/03 06:00:31;;;;;;;1.30;0.93;;;;;;;17.09;98.01;98335.31;5057714;28;20236;-87
2023/08/03 06:02:58;;;;;;;1.83;0.90;;;;;;;17.18;99.49;98312.66;5058025;28;20219;-86
2023/08/03 06:05:40;;;;;;;3.10;1.43;;;;;;;17.21;98.33;98331.69;5058753;28;20213;-86
2023/08/03 06:08:13;;;;;;;1.40;0.90;;;;;;;17.23;97.30;98356.16;5058455;28;20631;-84
2023/08/03 06:10:41;;;;;;;0.80;0.80;;;;;;;17.21;96.42;98368.63;5057526;28;20253;-85
2023/08/03 06:13:11;;;;;;;1.03;0.80;;;;;;;17.27;96.57;98376.03;5058033;28;20220;-85
2023/08/03 06:15:37;;;;;;;1.93;0.73;;;;;;;17.36;96.98;98370.97;5064680;28;20224;-88
2023/08/03 06:18:05;;;;;;;2.23;0.90;;;;;;;17.35;94.23;98409.72;5066387;28;20311;-85
2023/08/03 06:20:32;;;;;;;1.00;0.80;;;;;;;17.33;93.05;98432.72;5063290;28;20233;-87
2023/08/03 06:22:59;;;;;;;1.60;0.73;;;;;;;17.39;93.76;98426.97;5064017;28;20221;-87
2023/08/03 06:25:26;;;;;;;0.90;0.70;;;;;;;17.27;91.44;98449.03;5058946;28;20197;-85
2023/08/03 06:27:55;;;;;;;0.93;0.63;;;;;;;17.40;93.42;98452.41;5058687;28;20236;-85
2023/08/03 06:30:21;;;;;;;2.00;0.90;;;;;;;17.50;93.54;98454.28;5059489;28;20222;-84
2023/08/03 06:32:48;;;;;;;0.67;0.67;;;;;;;17.46;91.41;98473.00;5059082;28;20228;-85
2023/08/03 06:35:26;;;;;;;1.03;0.60;;;;;;;17.48;91.62;98462.31;5055595;28;20574;-78
2023/08/03 06:37:55;;;;;;;1.60;0.80;;;;;;;17.52;92.36;98474.31;5054884;28;20893;-84
2023/08/03 06:40:21;;;;;;;0.80;0.80;;;;;;;17.52;91.81;98470.81;5055335;28;20291;-81
2023/08/03 06:42:48;;;;;;;0.80;0.70;;;;;;;17.50;91.40;98492.03;5056095;28;20209;-81
2023/08/03 06:45:15;;;;;;;2.97;1.13;;;;;;;17.56;92.13;98493.38;5055448;28;20213;-82
2023/08/03 06:47:42;;;;;;;1.43;0.87;;;;;;;17.51;90.40;98504.28;5055099;28;20240;-80
2023/08/03 06:50:09;;;;;;;1.13;0.80;;;;;;;17.58;92.25;98496.72;5055747;28;20231;-79
2023/08/03 06:52:36;;;;;;;2.07;1.07;;;;;;;17.56;92.44;98478.41;5055824;28;20205;-82
2023/08/03 06:55:02;;;;;;;1.23;0.80;;;;;;;17.60;91.56;98508.84;5054636;28;20209;-81
2023/08/03 06:57:29;;;;;;;1.00;0.80;;;;;;;17.59;90.10;98530.06;5054714;28;20210;-80
2023/08/03 06:59:56;;;;;;;1.53;0.90;;;;;;;17.63;92.18;98502.50;5054967;28;20233;-81
2023/08/03 07:02:24;;;;;;;1.90;0.80;;;;;;;17.61;90.58;98522.88;5054550;28;20205;-81
2023/08/03 07:04:50;;;;;;;1.30;0.63;;;;;;;17.69;89.64;98541.56;5055000;28;20208;-82
2023/08/03 07:07:16;;;;;;;1.57;0.70;;;;;;;17.77;89.48;98548.88;5055167;28;20212;-81
2023/08/03 07:09:48;;;;;;;0.60;0.60;;;;;;;17.81;89.33;98567.00;5054802;28;20249;-80
2023/08/03 07:12:14;;;;;;;1.10;0.60;;;;;;;17.81;89.50;98588.09;5055419;28;20231;-81
2023/08/03 07:14:41;;;;;;;2.53;0.80;;;;;;;17.82;90.15;98560.75;5055264;28;20205;-81
2023/08/03 07:17:07;;;;;;;0.90;0.90;;;;;;;17.81;90.37;98563.53;5055367;28;20209;-80
2023/08/03 07:19:35;;;;;;;1.37;0.90;;;;;;;17.74;89.69;98589.56;5056414;28;20230;-81
2023/08/03 07:22:01;;;;;;;1.33;0.77;;;;;;;17.66;88.64;98598.06;5054979;28;20228;-82
2023/08/03 07:24:28;;;;;;;2.13;0.70;;;;;;;17.71;88.92;98589.78;5054196;28;20202;-82
2023/08/03 07:26:55;;;;;;;1.73;0.70;;;;;;;17.77;88.83;98591.94;5055048;28;20248;-82
2023/08/03 07:29:21;;;;;;;1.57;1.17;;;;;;;17.86;88.41;98601.81;5057203;28;20241;-82
2023/08/03 07:31:48;;;;;;;1.60;0.80;;;;;;;17.96;88.03;98607.22;5055228;28;20209;-82
2023/08/03 07:34:15;;;;;;;0.97;0.60;;;;;;;18.00;88.44;98618.38;5055304;28;20647;-83
2023/08/03 07:36:42;;;;;;;1.17;0.80;;;;;;;17.93;86.20;98648.84;5053573;28;20212;-83
2023/08/03 07:39:09;;;;;;;0.93;0.80;;;;;;;18.01;87.04;98639.38;5054868;28;20228;-84
2023/08/03 07:41:35;;;;;;;0.93;0.70;;;;;;;18.05;87.85;98614.41;5056330;28;20251;-85
2023/08/03 07:44:02;;;;;;;1.03;0.80;;;;;;;18.08;87.66;98646.78;5063363;28;20208;-84
2023/08/03 07:46:29;;;;;;;4.20;1.13;;;;;;;18.17;87.51;98638.16;5065486;28;20214;-86
2023/08/03 07:48:56;;;;;;;1.03;0.90;;;;;;;18.15;87.20;98640.91;5061104;28;20214;-84
2023/08/03 07:51:23;;;;;;;0.97;0.50;;;;;;;18.19;88.44;98626.50;5060530;28;20212;-84
2023/08/03 07:53:52;;;;;;;2.70;0.90;;;;;;;18.14;88.68;98620.78;5057758;28;20205;-82
2023/08/03 07:56:20;;;;;;;1.47;0.70;;;;;;;18.13;90.55;98584.75;5058254;28;20205;-84
2023/08/03 07:58:48;;;;;;;0.70;0.70;;;;;;;18.00;90.57;98582.25;5069907;28;20210;-82
2023/08/03 08:01:15;;;;;;;0.93;0.80;;;;;;;17.85;90.17;98549.16;5059982;28;20229;-82
2023/08/03 08:03:42;;;;;;;0.53;0.53;;;;;;;18.02;90.91;98556.56;5060104;28;20205;-83
2023/08/03 08:06:11;;;;;;;0.60;0.60;;;;;;;17.94;89.70;98569.53;5058350;28;20202;-84
2023/08/03 08:08:38;;;;;;;0.80;0.80;;;;;;;18.15;91.63;98550.31;5058912;28;20213;-84
2023/08/03 08:11:06;;;;;;;1.60;1.30;;;;;;;18.12;90.07;98561.13;5057508;28;20221;-83
2023/08/03 08:13:33;;;;;;;1.10;0.80;;;;;;;18.21;89.52;98582.31;5060379;28;20201;-83
2023/08/03 08:16:00;;;;;;;0.80;0.80;;;;;;;18.25;87.77;98611.97;5063089;28;20214;-83
2023/08/03 08:18:26;;;;;;;0.70;0.70;;;;;;;18.30;88.35;98638.03;5063213;28;20220;-84
2023/08/03 08:20:55;;;;;;;0.77;0.73;;;;;;;18.29;90.40;98602.00;5064259;28;20231;-84
2023/08/03 08:23:22;;;;;;;1.67;1.00;;;;;;;18.20;90.17;98566.63;5065640;28;20211;-83
2023/08/03 08:25:48;;;;;;;1.33;0.80;;;;;;;18.10;90.83;98582.38;5063557;28;20212;-84
2023/08/03 08:28:16;;;;;;;1.43;0.70;;;;;;;18.05;90.96;98561.59;5061364;28;20209;-84
2023/08/03 08:30:44;;;;;;;1.63;0.80;;;;;;;18.06;91.74;98554.53;5059312;28;20229;-85
2023/08/03 08:33:10;;;;;;;0.63;0.60;;;;;;;18.17;92.79;98529.88;5059936;28;20216;-84
2023/08/03 08:35:36;;;;;;;0.70;0.70;;;;;;;18.19;92.33;98530.59;5059986;28;20263;-81
2023/08/03 08:38:05;;;;;;;1.13;0.77;;;;;;;18.18;92.46;98518.38;5058230;28;20206;-85
2023/08/03 08:40:35;;;;;;;0.50;0.50;;;;;;;18.25;90.55;98545.94;5060235;28;20301;-85
2023/08/03 08:43:01;;;;;;;1.87;1.00;;;;;;;18.41;91.32;98553.47;5061387;28;20214;-81
2023/08/03 08:45:30;;;;;;;0.77;0.60;;;;;;;18.44;89.20;98564.63;5059981;28;20212;-83
2023/08/03 08:47:56;;;;;;;1.80;0.83;;;;;;;18.61;88.87;98615.25;5059827;28;20213;-85
2023/08/03 08:50:23;;;;;;;0.83;0.50;;;;;;;18.82;89.96;98594.19;5058826;28;20260;-84
2023/08/03 08:52:51;;;;;;;0.70;0.40;;;;;;;18.92;88.69;98636.56;5060094;28;20685;-86
2023/08/03 08:55:20;;;;;;;1.40;0.60;;;;;;;19.00;87.68;98640.25;5060687;28;20213;-81
2023/08/03 08:57:46;;;;;;;0.50;0.50;;;;;;;18.95;86.70;98665.38;5059853;28;20263;-88
2023/08/03 09:00:14;;;;;;;0.50;0.50;;;;;;;18.87;87.89;98689.84;5061273;28;20264;-85
2023/08/03 09:02:41;;;;;;;2.73;0.70;;;;;;;18.53;93.61;98602.69;5063623;28;20214;-84
2023/08/03 09:05:13;;;;;;;1.37;0.60;;;;;;;18.52;95.31;98545.50;5061896;28;20210;-84
2023/08/03 09:07:40;;;;;;;0.70;0.70;;;;;;;18.37;97.48;98492.09;5059756;28;20212;-86
2023/08/03 09:10:08;;;;;;;1.47;0.90;;;;;;;18.27;98.14;98480.63;5060211;28;20237;-84
2023/08/03 09:12:34;;;;;;;1.53;0.80;;;;;;;18.04;100.00;98433.19;5059995;28;20201;-83
2023/08/03 09:15:01;;;;;;;0.70;0.70;;;;;;;18.01;100.00;98403.56;5059298;28;20202;-84
2023/08/03 09:17:28;;;;;;;0.80;0.77;;;;;;;17.93;100.00;98385.72;5061892;28;20695;-83
2023/08/03 09:19:56;;;;;;;0.90;0.83;;;;;;;18.02;100.00;98382.31;5061857;28;20311;-81
2023/08/03 09:22:24;;;;;;;0.70;0.70;;;;;;;17.88;100.00;98364.16;5060049;28;20220;-82
2023/08/03 09:25:00;;;;;;;1.20;0.80;;;;;;;17.85;100.00;98380.22;5058388;28;20211;-82
2023/08/03 09:27:27;;;;;;;1.00;0.77;;;;;;;17.49;100.00;98365.56;5057434;28;20210;-84
2023/08/03 09:29:59;;;;;;;0.70;0.70;;;;;;;17.41;100.00;98353.00;5055941;28;20233;-80
2023/08/03 09:32:31;;;;;;;1.23;1.13;;;;;;;17.36;100.00;98326.16;5055164;28;20201;-83
2023/08/03 09:34:58;;;;;;;0.70;0.70;;;;;;;17.34;100.00;98317.53;5055358;28;20213;-81
2023/08/03 09:37:33;;;;;;;0.80;0.80;;;;;;;17.02;100.00;98319.13;5057061;28;20224;-83
2023/08/03 09:40:02;;;;;;;0.90;0.90;;;;;;;17.20;100.00;98303.66;5058500;28;20239;-85
2023/08/03 09:42:31;;;;;;;1.13;0.90;;;;;;;17.30;100.00;98321.38;5057889;28;20293;-85
2023/08/03 09:45:00;;;;;;;1.17;0.90;;;;;;;17.45;100.00;98336.78;5056375;28;20205;-85
2023/08/03 09:47:27;;;;;;;1.83;0.83;;;;;;;17.58;100.00;98348.97;5057420;28;20213;-84
2023/08/03 09:49:53;;;;;;;1.20;0.80;;;;;;;17.70;100.00;98349.78;5057353;28;20654;-88
2023/08/03 09:52:24;;;;;;;1.30;0.70;;;;;;;17.54;100.00;98342.28;5058863;28;20795;-83
2023/08/03 09:54:58;;;;;;;0.97;0.60;;;;;;;17.33;100.00;98355.41;5058273;28;20197;-84
2023/08/03 09:57:30;;;;;;;0.77;0.50;;;;;;;17.50;100.00;98356.69;5057894;28;20401;-83
2023/08/03 10:00:03;;;;;;;0.67;0.40;;;;;;;17.56;100.00;98367.59;5058563;28;20233;-86
2023/08/03 10:02:35;;;;;;;0.40;0.40;;;;;;;17.46;100.00;98396.50;5062869;28;20232;-85
2023/08/03 10:05:04;;;;;;;0.30;0.30;;;;;;;17.40;100.00;98411.97;5060094;28;20202;-87
2023/08/03 10:07:45;;;;;;;0.43;0.40;;;;;;;17.42;100.00;98396.88;5056830;28;20208;-84
2023/08/03 10:10:14;;;;;;;0.20;0.20;;;;;;;17.31;100.00;98410.91;5061837;28;20292;-85
2023/08/03 10:12:46;;;;;;;0.23;0.23;;;;;;;17.44;100.00;98422.19;5061185;28;20292;-88
2023/08/03 10:15:20;;;;;;;0.33;0.33;;;;;;;17.43;100.00;98419.66;5063199;28;20287;-85
2023/08/03 10:17:47;;;;;;;0.73;0.20;;;;;;;17.40;100.00;98433.06;5061261;28;20212;-87
2023/08/03 10:20:15;;;;;;;0.33;0.33;;;;;;;17.47;100.00;98440.38;5060770;28;20688;-84
2023/08/03 10:23:11;;;;;;;0.87;0.40;;;;;;;17.47;100.00;98444.81;5057705;28;20684;-84
2023/08/03 10:25:54;;;;;;;0.33;0.33;;;;;;;17.49;100.00;98450.00;5058629;28;20220;-83
2023/08/03 10:28:21;;;;;;;0.47;0.23;;;;;;;17.57;100.00;98452.84;5056918;28;20559;-84
2023/08/03 10:31:10;;;;;;;0.60;0.40;;;;;;;17.56;100.00;98462.56;5057631;28;20230;-84
2023/08/03 10:34:17;;;;;;;0.10;0.10;;;;;;;17.32;100.00;98477.69;5061010;28;20200;-86
2023/08/03 10:36:47;;;;;;;0.80;0.23;;;;;;;17.54;100.00;98458.34;5060168;28;20196;-83
2023/08/03 10:39:16;;;;;;;0.60;0.30;;;;;;;17.62;100.00;98459.44;5062039;28;20248;-81
2023/08/03 10:41:44;;;;;;;0.30;0.30;;;;;;;17.65;100.00;98467.09;5062956;28;20237;-83
2023/08/03 10:44:23;;;;;;;0.30;0.30;;;;;;;17.66;100.00;98468.78;5064131;28;20213;-81
2023/08/03 10:46:52;;;;;;;0.30;0.30;;;;;;;17.72;100.00;98462.19;5061752;28;20213;-82
2023/08/03 10:49:49;;;;;;;0.50;0.50;;;;;;;17.71;100.00;98455.22;5063717;28;20236;-86
2023/08/03 10:52:18;;;;;;;0.73;0.40;;;;;;;17.77;100.00;98453.88;5061464;28;20224;-83
2023/08/03 10:54:46;;;;;;;3.70;0.50;;;;;;;17.89;100.00;98467.94;5063627;28;20704;-84
2023/08/03 10:57:14;;;;;;;0.63;0.40;;;;;;;17.87;100.00;98473.31;5061474;28;20740;-82
2023/08/03 10:59:43;;;;;;;1.07;0.50;;;;;;;17.75;100.00;98474.28;5063455;28;20229;-87
2023/08/03 11:02:12;;;;;;;0.40;0.40;;;;;;;17.69;100.00;98467.69;5062674;28;20257;-85
2023/08/03 11:04:39;;;;;;;0.50;0.50;;;;;;;17.39;100.00;98468.34;5062915;28;20271;-86
2023/08/03 11:07:07;;;;;;;0.60;0.60;;;;;;;17.43;100.00;98440.75;5065528;28;20205;-86
2023/08/03 11:09:34;;;;;;;0.60;0.60;;;;;;;17.58;100.00;98439.53;5064242;28;20236;-86
2023/08/03 11:12:03;;;;;;;0.60;0.60;;;;;;;17.56;100.00;98443.25;5061823;28;20189;-86
2023/08/03 11:14:30;;;;;;;0.80;0.80;;;;;;;17.56;100.00;98437.97;5062019;28;20275;-83
2023/08/03 11:16:56;;;;;;;1.07;0.80;;;;;;;17.69;100.00;98435.19;5067369;28;20265;-88
2023/08/03 11:19:23;;;;;;;0.80;0.80;;;;;;;17.77;100.00;98445.97;5072081;28;20250;-86
2023/08/03 11:21:49;;;;;;;0.60;0.60;;;;;;;17.73;100.00;98445.38;5061442;28;20229;-86
2023/08/03 11:24:16;;;;;;;1.37;0.60;;;;;;;17.80;100.00;98443.06;5060271;28;20211;-87
2023/08/03 11:26:43;;;;;;;1.50;0.83;;;;;;;17.83;100.00;98451.59;5066522;28;20208;-86
2023/08/03 11:29:11;;;;;;;1.10;0.60;;;;;;;17.77;100.00;98461.81;5061134;28;20302;-87
2023/08/03 11:31:42;;;;;;;0.70;0.70;;;;;;;17.86;100.00;98455.81;5059948;28;20216;-89